sensor_id;sensor_type;location;lat;lon;timestamp;pressure;altitude;pressure_sealevel;temperature
19282;BMP180;9774;52.034;5.342;2022-10-23T00:01:31;101215.00;;;19.10
19282;BMP180;9774;52.034;5.342;2022-10-23T00:04:00;101212.00;;;19.10
19282;BMP180;9774;52.034;5.342;2022-10-23T00:06:30;101213.00;;;19.00
19282;BMP180;9774;52.034;5.342;2022-10-23T00:08:58;101223.00;;;19.10
19282;BMP180;9774;52.034;5.342;2022-10-23T00:11:28;101220.00;;;19.00
19282;BMP180;9774;52.034;5.342;2022-10-23T00:13:58;101222.00;;;19.00
19282;BMP180;9774;52.034;5.342;2022-10-23T00:16:25;101218.00;;;19.00
19282;BMP180;9774;52.034;5.342;2022-10-23T00:18:52;101220.00;;;19.00
19282;BMP180;9774;52.034;5.342;2022-10-23T00:21:20;101227.00;;;19.00
19282;BMP180;9774;52.034;5.342;2022-10-23T00:23:49;101223.00;;;19.00
19282;BMP180;9774;52.034;5.342;2022-10-23T00:26:17;101212.00;;;19.00
19282;BMP180;9774;52.034;5.342;2022-10-23T00:28:46;101215.00;;;19.00
19282;BMP180;9774;52.034;5.342;2022-10-23T00:31:13;101222.00;;;19.00
19282;BMP180;9774;52.034;5.342;2022-10-23T00:33:41;101213.00;;;19.00
19282;BMP180;9774;52.034;5.342;2022-10-23T00:36:11;101213.00;;;19.00
19282;BMP180;9774;52.034;5.342;2022-10-23T00:38:39;101211.00;;;19.00
19282;BMP180;9774;52.034;5.342;2022-10-23T00:41:12;101207.00;;;18.90
19282;BMP180;9774;52.034;5.342;2022-10-23T00:43:57;101204.00;;;18.90
19282;BMP180;9774;52.034;5.342;2022-10-23T00:46:25;101204.00;;;19.00
19282;BMP180;9774;52.034;5.342;2022-10-23T00:48:52;101203.00;;;19.00
19282;BMP180;9774;52.034;5.342;2022-10-23T00:51:20;101200.00;;;19.00
19282;BMP180;9774;52.034;5.342;2022-10-23T00:53:49;101204.00;;;18.90
19282;BMP180;9774;52.034;5.342;2022-10-23T00:56:20;101211.00;;;18.90
19282;BMP180;9774;52.034;5.342;2022-10-23T00:58:47;101204.00;;;19.00
19282;BMP180;9774;52.034;5.342;2022-10-23T01:01:17;101206.00;;;18.90
19282;BMP180;9774;52.034;5.342;2022-10-23T01:03:45;101199.00;;;18.90
19282;BMP180;9774;52.034;5.342;2022-10-23T01:06:17;101205.00;;;18.90
19282;BMP180;9774;52.034;5.342;2022-10-23T01:08:51;101202.00;;;18.90
19282;BMP180;9774;52.034;5.342;2022-10-23T01:11:25;101205.00;;;18.90
19282;BMP180;9774;52.034;5.342;2022-10-23T01:13:59;101205.00;;;18.90
19282;BMP180;9774;52.034;5.342;2022-10-23T01:16:32;101205.00;;;18.90
19282;BMP180;9774;52.034;5.342;2022-10-23T01:19:10;101198.00;;;18.80
19282;BMP180;9774;52.034;5.342;2022-10-23T01:21:48;101193.00;;;18.80
19282;BMP180;9774;52.034;5.342;2022-10-23T01:24:26;101194.00;;;18.90
19282;BMP180;9774;52.034;5.342;2022-10-23T01:27:14;101190.00;;;18.80
19282;BMP180;9774;52.034;5.342;2022-10-23T01:29:43;101200.00;;;18.90
19282;BMP180;9774;52.034;5.342;2022-10-23T01:32:14;101188.00;;;18.80
19282;BMP180;9774;52.034;5.342;2022-10-23T01:34:46;101187.00;;;18.80
19282;BMP180;9774;52.034;5.342;2022-10-23T01:37:19;101185.00;;;18.80
19282;BMP180;9774;52.034;5.342;2022-10-23T01:39:51;101187.00;;;18.80
19282;BMP180;9774;52.034;5.342;2022-10-23T01:42:24;101184.00;;;18.80
19282;BMP180;9774;52.034;5.342;2022-10-23T01:44:59;101185.00;;;18.80
19282;BMP180;9774;52.034;5.342;2022-10-23T01:47:31;101179.00;;;18.80
19282;BMP180;9774;52.034;5.342;2022-10-23T01:50:00;101184.00;;;18.80
19282;BMP180;9774;52.034;5.342;2022-10-23T01:52:28;101162.00;;;18.80
19282;BMP180;9774;52.034;5.342;2022-10-23T01:54:58;101164.00;;;18.80
19282;BMP180;9774;52.034;5.342;2022-10-23T01:57:28;101167.00;;;18.80
19282;BMP180;9774;52.034;5.342;2022-10-23T01:59:59;101165.00;;;18.80
19282;BMP180;9774;52.034;5.342;2022-10-23T02:02:28;101159.00;;;18.80
19282;BMP180;9774;52.034;5.342;2022-10-23T02:05:00;101151.00;;;18.80
19282;BMP180;9774;52.034;5.342;2022-10-23T02:07:28;101153.00;;;18.80
19282;BMP180;9774;52.034;5.342;2022-10-23T02:09:55;101144.00;;;18.80
19282;BMP180;9774;52.034;5.342;2022-10-23T02:12:29;101137.00;;;18.70
19282;BMP180;9774;52.034;5.342;2022-10-23T02:15:03;101134.00;;;18.70
19282;BMP180;9774;52.034;5.342;2022-10-23T02:17:42;101136.00;;;18.70
19282;BMP180;9774;52.034;5.342;2022-10-23T02:20:16;101134.00;;;18.70
19282;BMP180;9774;52.034;5.342;2022-10-23T02:22:51;101125.00;;;18.70
19282;BMP180;9774;52.034;5.342;2022-10-23T02:25:27;101126.00;;;18.60
19282;BMP180;9774;52.034;5.342;2022-10-23T02:28:00;101115.00;;;18.60
19282;BMP180;9774;52.034;5.342;2022-10-23T02:30:30;101119.00;;;18.70
19282;BMP180;9774;52.034;5.342;2022-10-23T02:32:58;101116.00;;;18.70
19282;BMP180;9774;52.034;5.342;2022-10-23T02:35:26;101113.00;;;18.60
19282;BMP180;9774;52.034;5.342;2022-10-23T02:37:54;101111.00;;;18.60
19282;BMP180;9774;52.034;5.342;2022-10-23T02:40:23;101123.00;;;18.60
19282;BMP180;9774;52.034;5.342;2022-10-23T02:42:57;101123.00;;;18.60
19282;BMP180;9774;52.034;5.342;2022-10-23T02:45:30;101128.00;;;18.60
19282;BMP180;9774;52.034;5.342;2022-10-23T02:48:06;101122.00;;;18.60
19282;BMP180;9774;52.034;5.342;2022-10-23T02:50:43;101122.00;;;18.60
19282;BMP180;9774;52.034;5.342;2022-10-23T02:53:18;101120.00;;;18.60
19282;BMP180;9774;52.034;5.342;2022-10-23T02:55:57;101121.00;;;18.50
19282;BMP180;9774;52.034;5.342;2022-10-23T02:58:34;101112.00;;;18.50
19282;BMP180;9774;52.034;5.342;2022-10-23T03:01:07;101108.00;;;18.60
19282;BMP180;9774;52.034;5.342;2022-10-23T03:03:38;101104.00;;;18.60
19282;BMP180;9774;52.034;5.342;2022-10-23T03:06:07;101088.00;;;18.60
19282;BMP180;9774;52.034;5.342;2022-10-23T03:08:41;101087.00;;;18.50
19282;BMP180;9774;52.034;5.342;2022-10-23T03:11:08;101094.00;;;18.60
19282;BMP180;9774;52.034;5.342;2022-10-23T03:13:37;101081.00;;;18.60
19282;BMP180;9774;52.034;5.342;2022-10-23T03:16:04;101088.00;;;18.60
19282;BMP180;9774;52.034;5.342;2022-10-23T03:18:31;101083.00;;;18.60
19282;BMP180;9774;52.034;5.342;2022-10-23T03:20:59;101078.00;;;18.60
19282;BMP180;9774;52.034;5.342;2022-10-23T03:23:26;101072.00;;;18.60
19282;BMP180;9774;52.034;5.342;2022-10-23T03:25:53;101075.00;;;18.60
19282;BMP180;9774;52.034;5.342;2022-10-23T03:28:21;101074.00;;;18.60
19282;BMP180;9774;52.034;5.342;2022-10-23T03:30:50;101058.00;;;18.60
19282;BMP180;9774;52.034;5.342;2022-10-23T03:33:18;101055.00;;;18.60
19282;BMP180;9774;52.034;5.342;2022-10-23T03:35:46;101050.00;;;18.60
19282;BMP180;9774;52.034;5.342;2022-10-23T03:38:13;101051.00;;;18.60
19282;BMP180;9774;52.034;5.342;2022-10-23T03:40:42;101038.00;;;18.60
19282;BMP180;9774;52.034;5.342;2022-10-23T03:43:09;101042.00;;;18.60
19282;BMP180;9774;52.034;5.342;2022-10-23T03:45:36;101037.00;;;18.60
19282;BMP180;9774;52.034;5.342;2022-10-23T03:48:06;101041.00;;;18.60
19282;BMP180;9774;52.034;5.342;2022-10-23T03:50:34;101034.00;;;18.60
19282;BMP180;9774;52.034;5.342;2022-10-23T03:53:01;101041.00;;;18.60
19282;BMP180;9774;52.034;5.342;2022-10-23T03:55:29;101037.00;;;18.60
19282;BMP180;9774;52.034;5.342;2022-10-23T03:57:56;101038.00;;;18.60
19282;BMP180;9774;52.034;5.342;2022-10-23T04:00:23;101022.00;;;18.60
19282;BMP180;9774;52.034;5.342;2022-10-23T04:02:50;101015.00;;;18.60
19282;BMP180;9774;52.034;5.342;2022-10-23T04:05:19;101015.00;;;18.60
19282;BMP180;9774;52.034;5.342;2022-10-23T04:07:46;101011.00;;;18.60
19282;BMP180;9774;52.034;5.342;2022-10-23T04:10:13;101005.00;;;18.60
19282;BMP180;9774;52.034;5.342;2022-10-23T04:12:41;101002.00;;;18.60
19282;BMP180;9774;52.034;5.342;2022-10-23T04:15:09;101009.00;;;18.60
19282;BMP180;9774;52.034;5.342;2022-10-23T04:17:36;100998.00;;;18.60
19282;BMP180;9774;52.034;5.342;2022-10-23T04:20:04;100992.00;;;18.60
19282;BMP180;9774;52.034;5.342;2022-10-23T04:22:32;100993.00;;;18.60
19282;BMP180;9774;52.034;5.342;2022-10-23T04:24:59;100998.00;;;18.60
19282;BMP180;9774;52.034;5.342;2022-10-23T04:27:27;100992.00;;;18.60
19282;BMP180;9774;52.034;5.342;2022-10-23T04:29:54;100991.00;;;18.60
19282;BMP180;9774;52.034;5.342;2022-10-23T04:32:21;100985.00;;;18.60
19282;BMP180;9774;52.034;5.342;2022-10-23T04:34:48;100991.00;;;18.60
19282;BMP180;9774;52.034;5.342;2022-10-23T04:37:16;100986.00;;;18.60
19282;BMP180;9774;52.034;5.342;2022-10-23T04:39:44;100986.00;;;18.60
19282;BMP180;9774;52.034;5.342;2022-10-23T04:42:12;100976.00;;;18.60
19282;BMP180;9774;52.034;5.342;2022-10-23T04:44:39;100977.00;;;18.70
19282;BMP180;9774;52.034;5.342;2022-10-23T04:47:07;100964.00;;;18.70
19282;BMP180;9774;52.034;5.342;2022-10-23T04:49:34;100975.00;;;18.70
19282;BMP180;9774;52.034;5.342;2022-10-23T04:52:01;100965.00;;;18.70
19282;BMP180;9774;52.034;5.342;2022-10-23T04:54:33;100969.00;;;18.70
19282;BMP180;9774;52.034;5.342;2022-10-23T04:57:02;100958.00;;;18.70
19282;BMP180;9774;52.034;5.342;2022-10-23T04:59:29;100962.00;;;18.70
19282;BMP180;9774;52.034;5.342;2022-10-23T05:01:56;100957.00;;;18.80
19282;BMP180;9774;52.034;5.342;2022-10-23T05:04:24;100963.00;;;18.80
19282;BMP180;9774;52.034;5.342;2022-10-23T05:06:51;100960.00;;;18.80
19282;BMP180;9774;52.034;5.342;2022-10-23T05:09:18;100956.00;;;18.80
19282;BMP180;9774;52.034;5.342;2022-10-23T05:11:47;100964.00;;;18.80
19282;BMP180;9774;52.034;5.342;2022-10-23T05:14:15;100969.00;;;18.80
19282;BMP180;9774;52.034;5.342;2022-10-23T05:16:47;100965.00;;;18.80
19282;BMP180;9774;52.034;5.342;2022-10-23T05:19:19;100965.00;;;18.90
19282;BMP180;9774;52.034;5.342;2022-10-23T05:21:48;100960.00;;;18.90
19282;BMP180;9774;52.034;5.342;2022-10-23T05:24:17;100959.00;;;18.90
19282;BMP180;9774;52.034;5.342;2022-10-23T05:26:44;100961.00;;;19.00
19282;BMP180;9774;52.034;5.342;2022-10-23T05:29:11;100963.00;;;19.00
19282;BMP180;9774;52.034;5.342;2022-10-23T05:31:40;100961.00;;;19.00
19282;BMP180;9774;52.034;5.342;2022-10-23T05:34:07;100958.00;;;19.00
19282;BMP180;9774;52.034;5.342;2022-10-23T05:36:36;100957.00;;;19.00
19282;BMP180;9774;52.034;5.342;2022-10-23T05:39:04;100958.00;;;19.10
19282;BMP180;9774;52.034;5.342;2022-10-23T05:41:31;100955.00;;;19.10
19282;BMP180;9774;52.034;5.342;2022-10-23T05:43:58;100959.00;;;19.10
19282;BMP180;9774;52.034;5.342;2022-10-23T05:46:25;100955.00;;;19.10
19282;BMP180;9774;52.034;5.342;2022-10-23T05:48:55;100945.00;;;19.10
19282;BMP180;9774;52.034;5.342;2022-10-23T05:51:22;100940.00;;;19.20
19282;BMP180;9774;52.034;5.342;2022-10-23T05:53:50;100942.00;;;19.20
19282;BMP180;9774;52.034;5.342;2022-10-23T05:56:18;100937.00;;;19.20
19282;BMP180;9774;52.034;5.342;2022-10-23T05:58:46;100939.00;;;19.20
19282;BMP180;9774;52.034;5.342;2022-10-23T06:01:14;100942.00;;;19.30
19282;BMP180;9774;52.034;5.342;2022-10-23T06:03:42;100935.00;;;19.30
19282;BMP180;9774;52.034;5.342;2022-10-23T06:06:11;100932.00;;;19.20
19282;BMP180;9774;52.034;5.342;2022-10-23T06:08:38;100930.00;;;19.30
19282;BMP180;9774;52.034;5.342;2022-10-23T06:11:06;100927.00;;;19.30
19282;BMP180;9774;52.034;5.342;2022-10-23T06:13:34;100924.00;;;19.30
19282;BMP180;9774;52.034;5.342;2022-10-23T06:16:08;100916.00;;;19.30
19282;BMP180;9774;52.034;5.342;2022-10-23T06:18:35;100907.00;;;19.30
19282;BMP180;9774;52.034;5.342;2022-10-23T06:21:03;100901.00;;;19.30
19282;BMP180;9774;52.034;5.342;2022-10-23T06:23:32;100910.00;;;19.30
19282;BMP180;9774;52.034;5.342;2022-10-23T06:26:00;100901.00;;;19.40
19282;BMP180;9774;52.034;5.342;2022-10-23T06:28:28;100905.00;;;19.40
19282;BMP180;9774;52.034;5.342;2022-10-23T06:30:55;100914.00;;;19.40
19282;BMP180;9774;52.034;5.342;2022-10-23T06:33:22;100906.00;;;19.40
19282;BMP180;9774;52.034;5.342;2022-10-23T06:35:50;100901.00;;;19.40
19282;BMP180;9774;52.034;5.342;2022-10-23T06:38:17;100902.00;;;19.40
19282;BMP180;9774;52.034;5.342;2022-10-23T06:40:52;100893.00;;;19.30
19282;BMP180;9774;52.034;5.342;2022-10-23T06:43:20;100888.00;;;19.40
19282;BMP180;9774;52.034;5.342;2022-10-23T06:45:47;100887.00;;;19.40
19282;BMP180;9774;52.034;5.342;2022-10-23T06:48:15;100883.00;;;19.40
19282;BMP180;9774;52.034;5.342;2022-10-23T06:50:42;100875.00;;;19.40
19282;BMP180;9774;52.034;5.342;2022-10-23T06:53:10;100874.00;;;19.40
19282;BMP180;9774;52.034;5.342;2022-10-23T06:55:38;100874.00;;;19.40
19282;BMP180;9774;52.034;5.342;2022-10-23T06:58:07;100874.00;;;19.40
19282;BMP180;9774;52.034;5.342;2022-10-23T07:00:36;100868.00;;;19.50
19282;BMP180;9774;52.034;5.342;2022-10-23T07:03:03;100880.00;;;19.40
19282;BMP180;9774;52.034;5.342;2022-10-23T07:05:32;100877.00;;;19.40
19282;BMP180;9774;52.034;5.342;2022-10-23T07:07:59;100884.00;;;19.50
19282;BMP180;9774;52.034;5.342;2022-10-23T07:10:26;100878.00;;;19.50
19282;BMP180;9774;52.034;5.342;2022-10-23T07:12:53;100868.00;;;19.50
19282;BMP180;9774;52.034;5.342;2022-10-23T07:15:27;100874.00;;;19.50
19282;BMP180;9774;52.034;5.342;2022-10-23T07:17:54;100878.00;;;19.50
19282;BMP180;9774;52.034;5.342;2022-10-23T07:20:21;100882.00;;;19.60
19282;BMP180;9774;52.034;5.342;2022-10-23T07:22:50;100874.00;;;19.60
19282;BMP180;9774;52.034;5.342;2022-10-23T07:25:19;100874.00;;;19.60
19282;BMP180;9774;52.034;5.342;2022-10-23T07:27:46;100867.00;;;19.60
19282;BMP180;9774;52.034;5.342;2022-10-23T07:30:14;100863.00;;;19.60
19282;BMP180;9774;52.034;5.342;2022-10-23T07:32:43;100858.00;;;19.60
19282;BMP180;9774;52.034;5.342;2022-10-23T07:35:12;100866.00;;;19.70
19282;BMP180;9774;52.034;5.342;2022-10-23T07:37:40;100863.00;;;19.70
19282;BMP180;9774;52.034;5.342;2022-10-23T07:40:08;100866.00;;;19.70
19282;BMP180;9774;52.034;5.342;2022-10-23T07:42:35;100861.00;;;19.80
19282;BMP180;9774;52.034;5.342;2022-10-23T07:45:04;100858.00;;;19.80
19282;BMP180;9774;52.034;5.342;2022-10-23T07:47:32;100857.00;;;19.80
19282;BMP180;9774;52.034;5.342;2022-10-23T07:50:01;100853.00;;;19.80
19282;BMP180;9774;52.034;5.342;2022-10-23T07:52:28;100854.00;;;19.90
19282;BMP180;9774;52.034;5.342;2022-10-23T07:54:55;100851.00;;;19.90
19282;BMP180;9774;52.034;5.342;2022-10-23T07:57:22;100839.00;;;19.90
19282;BMP180;9774;52.034;5.342;2022-10-23T07:59:50;100845.00;;;19.90
19282;BMP180;9774;52.034;5.342;2022-10-23T08:02:17;100844.00;;;19.90
19282;BMP180;9774;52.034;5.342;2022-10-23T08:04:48;100846.00;;;19.90
19282;BMP180;9774;52.034;5.342;2022-10-23T08:07:16;100845.00;;;20.00
19282;BMP180;9774;52.034;5.342;2022-10-23T08:09:44;100847.00;;;20.00
19282;BMP180;9774;52.034;5.342;2022-10-23T08:12:11;100835.00;;;20.00
19282;BMP180;9774;52.034;5.342;2022-10-23T08:14:38;100846.00;;;20.10
19282;BMP180;9774;52.034;5.342;2022-10-23T08:17:05;100833.00;;;20.10
19282;BMP180;9774;52.034;5.342;2022-10-23T08:19:34;100850.00;;;20.10
19282;BMP180;9774;52.034;5.342;2022-10-23T08:22:02;100844.00;;;20.10
19282;BMP180;9774;52.034;5.342;2022-10-23T08:24:30;100838.00;;;20.10
19282;BMP180;9774;52.034;5.342;2022-10-23T08:26:58;100833.00;;;20.10
19282;BMP180;9774;52.034;5.342;2022-10-23T08:29:25;100836.00;;;20.20
19282;BMP180;9774;52.034;5.342;2022-10-23T08:31:53;100819.00;;;20.20
19282;BMP180;9774;52.034;5.342;2022-10-23T08:34:20;100812.00;;;20.20
19282;BMP180;9774;52.034;5.342;2022-10-23T08:36:48;100823.00;;;20.30
19282;BMP180;9774;52.034;5.342;2022-10-23T08:39:16;100816.00;;;20.30
19282;BMP180;9774;52.034;5.342;2022-10-23T08:41:49;100807.00;;;20.30
19282;BMP180;9774;52.034;5.342;2022-10-23T08:44:21;100797.00;;;20.30
19282;BMP180;9774;52.034;5.342;2022-10-23T08:46:54;100801.00;;;20.40
19282;BMP180;9774;52.034;5.342;2022-10-23T08:49:33;100799.00;;;20.40
19282;BMP180;9774;52.034;5.342;2022-10-23T08:52:09;100797.00;;;20.40
19282;BMP180;9774;52.034;5.342;2022-10-23T08:54:45;100802.00;;;20.40
19282;BMP180;9774;52.034;5.342;2022-10-23T08:57:17;100802.00;;;20.50
19282;BMP180;9774;52.034;5.342;2022-10-23T08:59:49;100794.00;;;20.50
19282;BMP180;9774;52.034;5.342;2022-10-23T09:02:21;100792.00;;;20.50
19282;BMP180;9774;52.034;5.342;2022-10-23T09:04:52;100789.00;;;20.60
19282;BMP180;9774;52.034;5.342;2022-10-23T09:07:33;100780.00;;;20.60
19282;BMP180;9774;52.034;5.342;2022-10-23T09:10:27;100779.00;;;20.50
19282;BMP180;9774;52.034;5.342;2022-10-23T09:15:51;100772.00;;;20.70
19282;BMP180;9774;52.034;5.342;2022-10-23T09:18:24;100776.00;;;20.70
19282;BMP180;9774;52.034;5.342;2022-10-23T09:20:51;100773.00;;;20.70
19282;BMP180;9774;52.034;5.342;2022-10-23T09:23:21;100774.00;;;20.70
19282;BMP180;9774;52.034;5.342;2022-10-23T09:25:50;100756.00;;;20.70
19282;BMP180;9774;52.034;5.342;2022-10-23T09:28:24;100764.00;;;20.70
19282;BMP180;9774;52.034;5.342;2022-10-23T09:30:52;100762.00;;;20.80
19282;BMP180;9774;52.034;5.342;2022-10-23T09:33:23;100760.00;;;20.80
19282;BMP180;9774;52.034;5.342;2022-10-23T09:35:52;100749.00;;;20.80
19282;BMP180;9774;52.034;5.342;2022-10-23T09:38:31;100744.00;;;20.70
19282;BMP180;9774;52.034;5.342;2022-10-23T09:41:02;100734.00;;;20.80
19282;BMP180;9774;52.034;5.342;2022-10-23T09:43:33;100733.00;;;20.80
19282;BMP180;9774;52.034;5.342;2022-10-23T09:46:02;100743.00;;;20.80
19282;BMP180;9774;52.034;5.342;2022-10-23T09:48:30;100736.00;;;20.90
19282;BMP180;9774;52.034;5.342;2022-10-23T09:50:59;100729.00;;;20.90
19282;BMP180;9774;52.034;5.342;2022-10-23T09:53:32;100735.00;;;20.80
19282;BMP180;9774;52.034;5.342;2022-10-23T09:56:02;100734.00;;;20.90
19282;BMP180;9774;52.034;5.342;2022-10-23T09:58:34;100728.00;;;20.90
19282;BMP180;9774;52.034;5.342;2022-10-23T10:01:03;100720.00;;;20.90
19282;BMP180;9774;52.034;5.342;2022-10-23T10:03:31;100719.00;;;20.90
19282;BMP180;9774;52.034;5.342;2022-10-23T10:06:00;100725.00;;;20.90
19282;BMP180;9774;52.034;5.342;2022-10-23T10:08:39;100714.00;;;20.80
19282;BMP180;9774;52.034;5.342;2022-10-23T10:11:13;100707.00;;;20.90
19282;BMP180;9774;52.034;5.342;2022-10-23T10:13:58;100705.00;;;20.90
19282;BMP180;9774;52.034;5.342;2022-10-23T10:16:37;100700.00;;;20.90
19282;BMP180;9774;52.034;5.342;2022-10-23T10:19:13;100700.00;;;21.00
19282;BMP180;9774;52.034;5.342;2022-10-23T10:21:48;100691.00;;;21.00
19282;BMP180;9774;52.034;5.342;2022-10-23T10:24:21;100689.00;;;21.00
19282;BMP180;9774;52.034;5.342;2022-10-23T10:26:57;100688.00;;;21.00
19282;BMP180;9774;52.034;5.342;2022-10-23T10:29:44;100673.00;;;21.00
19282;BMP180;9774;52.034;5.342;2022-10-23T10:32:24;100677.00;;;21.10
19282;BMP180;9774;52.034;5.342;2022-10-23T10:35:04;100662.00;;;21.10
19282;BMP180;9774;52.034;5.342;2022-10-23T10:37:48;100663.00;;;21.10
19282;BMP180;9774;52.034;5.342;2022-10-23T10:40:22;100663.00;;;21.20
19282;BMP180;9774;52.034;5.342;2022-10-23T10:43:02;100655.00;;;21.20
19282;BMP180;9774;52.034;5.342;2022-10-23T10:45:38;100646.00;;;21.30
19282;BMP180;9774;52.034;5.342;2022-10-23T10:48:30;100627.00;;;21.20
19282;BMP180;9774;52.034;5.342;2022-10-23T10:51:02;100622.00;;;21.40
19282;BMP180;9774;52.034;5.342;2022-10-23T10:53:43;100628.00;;;21.30
19282;BMP180;9774;52.034;5.342;2022-10-23T10:56:18;100626.00;;;21.40
19282;BMP180;9774;52.034;5.342;2022-10-23T10:58:50;100621.00;;;21.50
19282;BMP180;9774;52.034;5.342;2022-10-23T11:01:23;100619.00;;;21.50
19282;BMP180;9774;52.034;5.342;2022-10-23T11:03:56;100618.00;;;21.60
19282;BMP180;9774;52.034;5.342;2022-10-23T11:06:28;100612.00;;;21.60
19282;BMP180;9774;52.034;5.342;2022-10-23T11:09:02;100615.00;;;21.60
19282;BMP180;9774;52.034;5.342;2022-10-23T11:11:33;100614.00;;;21.70
19282;BMP180;9774;52.034;5.342;2022-10-23T11:14:02;100619.00;;;21.80
19282;BMP180;9774;52.034;5.342;2022-10-23T11:16:34;100619.00;;;21.80
19282;BMP180;9774;52.034;5.342;2022-10-23T11:19:05;100612.00;;;21.80
19282;BMP180;9774;52.034;5.342;2022-10-23T11:21:38;100604.00;;;21.90
19282;BMP180;9774;52.034;5.342;2022-10-23T11:27:21;100598.00;;;21.90
19282;BMP180;9774;52.034;5.342;2022-10-23T11:30:03;100583.00;;;22.00
19282;BMP180;9774;52.034;5.342;2022-10-23T11:32:56;100580.00;;;22.00
19282;BMP180;9774;52.034;5.342;2022-10-23T11:35:56;100569.00;;;22.00
19282;BMP180;9774;52.034;5.342;2022-10-23T11:38:33;100559.00;;;22.20
19282;BMP180;9774;52.034;5.342;2022-10-23T11:41:02;100554.00;;;22.30
19282;BMP180;9774;52.034;5.342;2022-10-23T11:43:32;100540.00;;;22.40
19282;BMP180;9774;52.034;5.342;2022-10-23T11:46:11;100542.00;;;22.40
19282;BMP180;9774;52.034;5.342;2022-10-23T11:48:41;100548.00;;;22.50
19282;BMP180;9774;52.034;5.342;2022-10-23T11:51:27;100539.00;;;22.50
19282;BMP180;9774;52.034;5.342;2022-10-23T11:54:20;100533.00;;;22.60
19282;BMP180;9774;52.034;5.342;2022-10-23T11:56:55;100535.00;;;22.70
19282;BMP180;9774;52.034;5.342;2022-10-23T11:59:29;100545.00;;;22.80
19282;BMP180;9774;52.034;5.342;2022-10-23T12:01:59;100542.00;;;22.80
19282;BMP180;9774;52.034;5.342;2022-10-23T12:04:37;100544.00;;;22.80
19282;BMP180;9774;52.034;5.342;2022-10-23T12:07:15;100544.00;;;22.90
19282;BMP180;9774;52.034;5.342;2022-10-23T12:09:44;100538.00;;;23.00
19282;BMP180;9774;52.034;5.342;2022-10-23T12:12:16;100522.00;;;23.00
19282;BMP180;9774;52.034;5.342;2022-10-23T12:14:46;100521.00;;;23.10
19282;BMP180;9774;52.034;5.342;2022-10-23T12:17:31;100517.00;;;23.00
19282;BMP180;9774;52.034;5.342;2022-10-23T12:20:23;100499.00;;;23.10
19282;BMP180;9774;52.034;5.342;2022-10-23T12:23:02;100493.00;;;23.20
19282;BMP180;9774;52.034;5.342;2022-10-23T12:25:38;100494.00;;;23.20
19282;BMP180;9774;52.034;5.342;2022-10-23T12:28:11;100492.00;;;23.30
19282;BMP180;9774;52.034;5.342;2022-10-23T12:30:53;100494.00;;;23.30
19282;BMP180;9774;52.034;5.342;2022-10-23T12:33:27;100491.00;;;23.30
19282;BMP180;9774;52.034;5.342;2022-10-23T12:36:15;100503.00;;;23.30
19282;BMP180;9774;52.034;5.342;2022-10-23T12:38:47;100474.00;;;23.40
19282;BMP180;9774;52.034;5.342;2022-10-23T12:41:17;100482.00;;;23.40
19282;BMP180;9774;52.034;5.342;2022-10-23T12:43:50;100471.00;;;23.40
19282;BMP180;9774;52.034;5.342;2022-10-23T12:46:27;100476.00;;;23.50
19282;BMP180;9774;52.034;5.342;2022-10-23T12:48:56;100470.00;;;23.60
19282;BMP180;9774;52.034;5.342;2022-10-23T12:51:27;100465.00;;;23.60
19282;BMP180;9774;52.034;5.342;2022-10-23T12:53:55;100460.00;;;23.60
19282;BMP180;9774;52.034;5.342;2022-10-23T12:56:24;100463.00;;;23.60
19282;BMP180;9774;52.034;5.342;2022-10-23T12:58:54;100448.00;;;23.60
19282;BMP180;9774;52.034;5.342;2022-10-23T13:01:24;100441.00;;;23.60
19282;BMP180;9774;52.034;5.342;2022-10-23T13:03:56;100443.00;;;23.60
19282;BMP180;9774;52.034;5.342;2022-10-23T13:06:26;100444.00;;;23.60
19282;BMP180;9774;52.034;5.342;2022-10-23T13:08:54;100442.00;;;23.70
19282;BMP180;9774;52.034;5.342;2022-10-23T13:11:22;100437.00;;;23.70
19282;BMP180;9774;52.034;5.342;2022-10-23T13:13:50;100436.00;;;23.70
19282;BMP180;9774;52.034;5.342;2022-10-23T13:16:19;100424.00;;;23.70
19282;BMP180;9774;52.034;5.342;2022-10-23T13:18:48;100428.00;;;23.70
19282;BMP180;9774;52.034;5.342;2022-10-23T13:21:19;100417.00;;;23.70
19282;BMP180;9774;52.034;5.342;2022-10-23T13:23:48;100410.00;;;23.70
19282;BMP180;9774;52.034;5.342;2022-10-23T13:26:24;100403.00;;;23.70
19282;BMP180;9774;52.034;5.342;2022-10-23T13:28:51;100391.00;;;23.80
19282;BMP180;9774;52.034;5.342;2022-10-23T13:31:28;100389.00;;;23.70
19282;BMP180;9774;52.034;5.342;2022-10-23T13:34:20;100380.00;;;23.80
19282;BMP180;9774;52.034;5.342;2022-10-23T13:37:00;100365.00;;;23.90
19282;BMP180;9774;52.034;5.342;2022-10-23T13:39:31;100365.00;;;24.00
19282;BMP180;9774;52.034;5.342;2022-10-23T13:42:08;100366.00;;;24.20
19282;BMP180;9774;52.034;5.342;2022-10-23T13:44:37;100360.00;;;24.30
19282;BMP180;9774;52.034;5.342;2022-10-23T13:47:05;100359.00;;;24.30
19282;BMP180;9774;52.034;5.342;2022-10-23T13:49:35;100353.00;;;24.40
19282;BMP180;9774;52.034;5.342;2022-10-23T13:52:02;100344.00;;;24.40
19282;BMP180;9774;52.034;5.342;2022-10-23T13:54:31;100346.00;;;24.40
19282;BMP180;9774;52.034;5.342;2022-10-23T13:56:58;100353.00;;;24.40
19282;BMP180;9774;52.034;5.342;2022-10-23T13:59:25;100352.00;;;24.40
19282;BMP180;9774;52.034;5.342;2022-10-23T14:01:53;100344.00;;;24.40
19282;BMP180;9774;52.034;5.342;2022-10-23T14:04:20;100340.00;;;24.40
19282;BMP180;9774;52.034;5.342;2022-10-23T14:06:50;100345.00;;;24.40
19282;BMP180;9774;52.034;5.342;2022-10-23T14:09:23;100343.00;;;24.40
19282;BMP180;9774;52.034;5.342;2022-10-23T14:11:51;100339.00;;;24.30
19282;BMP180;9774;52.034;5.342;2022-10-23T14:14:19;100336.00;;;24.30
19282;BMP180;9774;52.034;5.342;2022-10-23T14:16:46;100337.00;;;24.30
19282;BMP180;9774;52.034;5.342;2022-10-23T14:19:13;100320.00;;;24.30
19282;BMP180;9774;52.034;5.342;2022-10-23T14:21:40;100322.00;;;24.30
19282;BMP180;9774;52.034;5.342;2022-10-23T14:24:08;100320.00;;;24.30
19282;BMP180;9774;52.034;5.342;2022-10-23T14:26:35;100318.00;;;24.30
19282;BMP180;9774;52.034;5.342;2022-10-23T14:29:04;100331.00;;;24.40
19282;BMP180;9774;52.034;5.342;2022-10-23T14:31:31;100325.00;;;24.40
19282;BMP180;9774;52.034;5.342;2022-10-23T14:33:59;100322.00;;;24.40
19282;BMP180;9774;52.034;5.342;2022-10-23T14:36:27;100324.00;;;24.40